sensor_id;sensor_type;location;lat;lon;timestamp;pressure;altitude;pressure_sealevel;temperature;humidity
2339;BME280;1180;51.438;6.978;2023-03-22T00:01:52;99792.16;;;14.67;77.88
2339;BME280;1180;51.438;6.978;2023-03-22T00:04:18;99788.75;;;14.66;77.70
2339;BME280;1180;51.438;6.978;2023-03-22T00:06:44;99786.31;;;14.65;78.30
2339;BME280;1180;51.438;6.978;2023-03-22T00:09:09;99777.88;;;14.63;78.09
2339;BME280;1180;51.438;6.978;2023-03-22T00:11:37;99783.78;;;14.53;77.71
2339;BME280;1180;51.438;6.978;2023-03-22T00:14:03;99779.44;;;14.54;78.34
2339;BME280;1180;51.438;6.978;2023-03-22T00:16:28;99779.72;;;14.51;77.86
2339;BME280;1180;51.438;6.978;2023-03-22T00:18:54;99783.78;;;14.53;77.53
2339;BME280;1180;51.438;6.978;2023-03-22T00:21:19;99773.47;;;14.53;77.89
2339;BME280;1180;51.438;6.978;2023-03-22T00:23:45;99778.06;;;14.50;78.12
2339;BME280;1180;51.438;6.978;2023-03-22T00:26:11;99773.59;;;14.52;78.09
2339;BME280;1180;51.438;6.978;2023-03-22T00:28:37;99766.66;;;14.52;78.09
2339;BME280;1180;51.438;6.978;2023-03-22T00:31:03;99765.44;;;14.56;77.92
2339;BME280;1180;51.438;6.978;2023-03-22T00:33:30;99767.91;;;14.58;77.36
2339;BME280;1180;51.438;6.978;2023-03-22T00:35:58;99759.31;;;14.48;77.89
2339;BME280;1180;51.438;6.978;2023-03-22T00:38:25;99754.31;;;14.56;77.33
2339;BME280;1180;51.438;6.978;2023-03-22T00:40:50;99760.69;;;14.52;77.83
2339;BME280;1180;51.438;6.978;2023-03-22T00:43:15;99748.59;;;14.52;77.48
2339;BME280;1180;51.438;6.978;2023-03-22T00:45:41;99744.00;;;14.56;76.92
2339;BME280;1180;51.438;6.978;2023-03-22T00:48:08;99746.16;;;14.51;76.91
2339;BME280;1180;51.438;6.978;2023-03-22T00:50:35;99743.56;;;14.51;77.12
2339;BME280;1180;51.438;6.978;2023-03-22T00:53:00;99740.03;;;14.52;76.71
2339;BME280;1180;51.438;6.978;2023-03-22T00:55:26;99733.31;;;14.39;77.19
2339;BME280;1180;51.438;6.978;2023-03-22T00:57:51;99724.88;;;14.37;77.24
2339;BME280;1180;51.438;6.978;2023-03-22T01:00:17;99725.19;;;14.44;77.10
2339;BME280;1180;51.438;6.978;2023-03-22T01:02:42;99723.13;;;14.38;77.16
2339;BME280;1180;51.438;6.978;2023-03-22T01:05:08;99719.72;;;14.37;76.99
2339;BME280;1180;51.438;6.978;2023-03-22T01:07:43;99724.19;;;14.35;77.37
2339;BME280;1180;51.438;6.978;2023-03-22T01:10:10;99718.75;;;14.28;77.94
2339;BME280;1180;51.438;6.978;2023-03-22T01:12:35;99717.59;;;14.21;78.29
2339;BME280;1180;51.438;6.978;2023-03-22T01:15:02;99714.66;;;14.26;78.36
2339;BME280;1180;51.438;6.978;2023-03-22T01:17:27;99712.13;;;14.36;77.51
2339;BME280;1180;51.438;6.978;2023-03-22T01:19:53;99718.06;;;14.36;77.56
2339;BME280;1180;51.438;6.978;2023-03-22T01:22:18;99710.06;;;14.29;78.19
2339;BME280;1180;51.438;6.978;2023-03-22T01:24:43;99705.59;;;14.32;78.65
2339;BME280;1180;51.438;6.978;2023-03-22T01:27:09;99700.28;;;14.33;78.19
2339;BME280;1180;51.438;6.978;2023-03-22T01:29:35;99701.63;;;14.27;78.94
2339;BME280;1180;51.438;6.978;2023-03-22T01:32:02;99695.38;;;14.30;78.84
2339;BME280;1180;51.438;6.978;2023-03-22T01:34:28;99694.81;;;14.26;79.21
2339;BME280;1180;51.438;6.978;2023-03-22T01:36:53;99688.72;;;14.27;79.29
2339;BME280;1180;51.438;6.978;2023-03-22T01:39:19;99688.56;;;14.29;79.13
2339;BME280;1180;51.438;6.978;2023-03-22T01:41:44;99677.19;;;14.32;79.21
2339;BME280;1180;51.438;6.978;2023-03-22T01:44:13;99669.72;;;14.38;78.51
2339;BME280;1180;51.438;6.978;2023-03-22T01:46:41;99662.38;;;14.34;78.50
2339;BME280;1180;51.438;6.978;2023-03-22T01:49:22;99670.50;;;14.29;78.85
2339;BME280;1180;51.438;6.978;2023-03-22T01:51:49;99662.34;;;14.24;79.17
2339;BME280;1180;51.438;6.978;2023-03-22T01:56:49;99656.81;;;14.28;78.98
2339;BME280;1180;51.438;6.978;2023-03-22T01:59:15;99647.53;;;14.26;78.95
2339;BME280;1180;51.438;6.978;2023-03-22T02:01:40;99652.03;;;14.24;79.55
2339;BME280;1180;51.438;6.978;2023-03-22T02:04:19;99649.75;;;14.30;79.29
2339;BME280;1180;51.438;6.978;2023-03-22T02:06:50;99636.53;;;14.24;79.45
2339;BME280;1180;51.438;6.978;2023-03-22T02:09:18;99642.34;;;14.16;79.57
2339;BME280;1180;51.438;6.978;2023-03-22T02:11:52;99635.59;;;14.25;79.31
2339;BME280;1180;51.438;6.978;2023-03-22T02:17:25;99644.53;;;14.21;79.07
2339;BME280;1180;51.438;6.978;2023-03-22T02:20:30;99633.09;;;14.13;79.52
2339;BME280;1180;51.438;6.978;2023-03-22T02:23:33;99630.22;;;14.07;80.09
2339;BME280;1180;51.438;6.978;2023-03-22T02:31:28;99618.38;;;14.04;79.51
2339;BME280;1180;51.438;6.978;2023-03-22T02:39:55;99618.00;;;13.78;80.78
2339;BME280;1180;51.438;6.978;2023-03-22T02:42:26;99605.97;;;13.67;81.15
2339;BME280;1180;51.438;6.978;2023-03-22T02:45:03;99608.13;;;13.62;81.55
2339;BME280;1180;51.438;6.978;2023-03-22T02:47:38;99607.56;;;13.58;81.55
2339;BME280;1180;51.438;6.978;2023-03-22T02:53:01;99595.31;;;13.50;82.25
2339;BME280;1180;51.438;6.978;2023-03-22T02:56:02;99595.22;;;13.40;82.79
2339;BME280;1180;51.438;6.978;2023-03-22T02:58:33;99590.41;;;13.47;82.62
2339;BME280;1180;51.438;6.978;2023-03-22T03:01:04;99592.31;;;13.45;82.61
2339;BME280;1180;51.438;6.978;2023-03-22T03:03:32;99589.22;;;13.40;82.67
2339;BME280;1180;51.438;6.978;2023-03-22T03:06:07;99589.72;;;13.45;82.58
2339;BME280;1180;51.438;6.978;2023-03-22T03:08:36;99582.94;;;13.44;82.73
2339;BME280;1180;51.438;6.978;2023-03-22T03:11:02;99582.94;;;13.44;82.77
2339;BME280;1180;51.438;6.978;2023-03-22T03:13:27;99584.91;;;13.40;83.06
2339;BME280;1180;51.438;6.978;2023-03-22T03:15:56;99584.56;;;13.45;82.77
2339;BME280;1180;51.438;6.978;2023-03-22T03:21:06;99587.66;;;13.27;83.45
2339;BME280;1180;51.438;6.978;2023-03-22T03:29:04;99570.94;;;13.22;83.96
2339;BME280;1180;51.438;6.978;2023-03-22T03:34:17;99572.63;;;13.11;84.67
2339;BME280;1180;51.438;6.978;2023-03-22T03:36:49;99572.94;;;12.97;85.50
2339;BME280;1180;51.438;6.978;2023-03-22T03:39:19;99565.28;;;13.07;85.08
2339;BME280;1180;51.438;6.978;2023-03-22T03:41:47;99568.88;;;13.15;84.98
2339;BME280;1180;51.438;6.978;2023-03-22T03:44:15;99561.63;;;13.09;85.06
2339;BME280;1180;51.438;6.978;2023-03-22T03:46:42;99556.81;;;13.16;84.89
2339;BME280;1180;51.438;6.978;2023-03-22T03:49:11;99559.94;;;13.20;84.65
2339;BME280;1180;51.438;6.978;2023-03-22T03:51:46;99553.47;;;13.04;85.26
2339;BME280;1180;51.438;6.978;2023-03-22T03:54:12;99560.50;;;13.02;85.43
2339;BME280;1180;51.438;6.978;2023-03-22T03:56:37;99553.81;;;13.11;85.60
2339;BME280;1180;51.438;6.978;2023-03-22T03:59:02;99558.38;;;13.07;85.57
2339;BME280;1180;51.438;6.978;2023-03-22T04:01:28;99557.88;;;13.13;84.94
2339;BME280;1180;51.438;6.978;2023-03-22T04:03:53;99559.66;;;13.13;85.34
2339;BME280;1180;51.438;6.978;2023-03-22T04:06:19;99554.78;;;13.20;84.62
2339;BME280;1180;51.438;6.978;2023-03-22T04:08:45;99549.44;;;13.11;84.88
2339;BME280;1180;51.438;6.978;2023-03-22T04:11:10;99557.53;;;13.07;85.45
2339;BME280;1180;51.438;6.978;2023-03-22T04:13:35;99559.25;;;13.18;84.88
2339;BME280;1180;51.438;6.978;2023-03-22T04:16:01;99559.50;;;13.14;84.61
2339;BME280;1180;51.438;6.978;2023-03-22T04:18:26;99560.94;;;13.07;85.52
2339;BME280;1180;51.438;6.978;2023-03-22T04:20:54;99552.53;;;13.05;85.46
2339;BME280;1180;51.438;6.978;2023-03-22T04:23:20;99549.00;;;13.06;85.68
2339;BME280;1180;51.438;6.978;2023-03-22T04:25:48;99549.13;;;13.05;85.69
2339;BME280;1180;51.438;6.978;2023-03-22T04:28:15;99546.00;;;13.01;85.66
2339;BME280;1180;51.438;6.978;2023-03-22T04:30:40;99542.50;;;12.91;86.43
2339;BME280;1180;51.438;6.978;2023-03-22T04:33:09;99549.06;;;12.95;86.50
2339;BME280;1180;51.438;6.978;2023-03-22T04:35:35;99533.81;;;13.03;85.88
2339;BME280;1180;51.438;6.978;2023-03-22T04:38:01;99531.22;;;13.03;85.84
2339;BME280;1180;51.438;6.978;2023-03-22T04:40:27;99528.84;;;13.11;86.14
2339;BME280;1180;51.438;6.978;2023-03-22T04:42:56;99538.03;;;13.04;85.93
2339;BME280;1180;51.438;6.978;2023-03-22T04:45:23;99531.59;;;12.98;86.07
2339;BME280;1180;51.438;6.978;2023-03-22T04:47:48;99530.91;;;12.96;86.38
2339;BME280;1180;51.438;6.978;2023-03-22T04:50:14;99525.44;;;12.90;86.77
2339;BME280;1180;51.438;6.978;2023-03-22T04:52:39;99537.00;;;12.95;86.54
2339;BME280;1180;51.438;6.978;2023-03-22T04:55:05;99543.16;;;13.04;85.80
2339;BME280;1180;51.438;6.978;2023-03-22T04:57:31;99543.66;;;12.98;86.36
2339;BME280;1180;51.438;6.978;2023-03-22T04:59:56;99548.31;;;13.04;85.91
2339;BME280;1180;51.438;6.978;2023-03-22T05:02:21;99539.31;;;12.98;86.18
2339;BME280;1180;51.438;6.978;2023-03-22T05:04:47;99536.25;;;13.05;86.00
2339;BME280;1180;51.438;6.978;2023-03-22T05:07:14;99534.19;;;12.98;85.68
2339;BME280;1180;51.438;6.978;2023-03-22T05:09:39;99536.13;;;13.06;85.54
2339;BME280;1180;51.438;6.978;2023-03-22T05:12:05;99539.97;;;13.12;85.04
2339;BME280;1180;51.438;6.978;2023-03-22T05:14:30;99528.72;;;13.13;85.34
2339;BME280;1180;51.438;6.978;2023-03-22T05:16:55;99538.38;;;12.99;86.07
2339;BME280;1180;51.438;6.978;2023-03-22T05:19:21;99540.28;;;13.19;85.16
2339;BME280;1180;51.438;6.978;2023-03-22T05:21:49;99536.56;;;13.11;84.85
2339;BME280;1180;51.438;6.978;2023-03-22T05:24:22;99541.91;;;13.20;84.58
2339;BME280;1180;51.438;6.978;2023-03-22T05:26:48;99537.84;;;13.17;84.63
2339;BME280;1180;51.438;6.978;2023-03-22T05:29:17;99541.78;;;13.21;84.55
2339;BME280;1180;51.438;6.978;2023-03-22T05:31:43;99526.19;;;13.23;84.29
2339;BME280;1180;51.438;6.978;2023-03-22T05:34:08;99534.50;;;13.05;84.88
2339;BME280;1180;51.438;6.978;2023-03-22T05:36:34;99540.09;;;13.10;84.94
2339;BME280;1180;51.438;6.978;2023-03-22T05:39:01;99531.41;;;13.11;84.75
2339;BME280;1180;51.438;6.978;2023-03-22T05:41:27;99532.81;;;13.15;84.79
2339;BME280;1180;51.438;6.978;2023-03-22T05:43:55;99532.75;;;13.27;84.46
2339;BME280;1180;51.438;6.978;2023-03-22T05:46:21;99526.78;;;13.26;84.23
2339;BME280;1180;51.438;6.978;2023-03-22T05:48:46;99528.41;;;13.27;84.29
2339;BME280;1180;51.438;6.978;2023-03-22T05:51:13;99534.38;;;13.28;84.40
2339;BME280;1180;51.438;6.978;2023-03-22T05:53:42;99535.75;;;13.32;84.18
2339;BME280;1180;51.438;6.978;2023-03-22T05:56:09;99534.69;;;13.35;84.23
2339;BME280;1180;51.438;6.978;2023-03-22T05:58:34;99529.84;;;13.41;84.03
2339;BME280;1180;51.438;6.978;2023-03-22T06:01:04;99526.56;;;13.39;83.80
2339;BME280;1180;51.438;6.978;2023-03-22T06:03:30;99521.50;;;13.49;83.32
2339;BME280;1180;51.438;6.978;2023-03-22T06:05:55;99522.06;;;13.53;82.87
2339;BME280;1180;51.438;6.978;2023-03-22T06:08:21;99530.78;;;13.40;83.81
2339;BME280;1180;51.438;6.978;2023-03-22T06:10:48;99527.19;;;13.43;83.59
2339;BME280;1180;51.438;6.978;2023-03-22T06:13:15;99523.06;;;13.40;84.27
2339;BME280;1180;51.438;6.978;2023-03-22T06:15:41;99519.75;;;13.50;83.49
2339;BME280;1180;51.438;6.978;2023-03-22T06:18:06;99527.72;;;13.47;83.59
2339;BME280;1180;51.438;6.978;2023-03-22T06:20:31;99534.13;;;13.52;83.94
2339;BME280;1180;51.438;6.978;2023-03-22T06:22:57;99534.06;;;13.64;83.20
2339;BME280;1180;51.438;6.978;2023-03-22T06:25:22;99531.63;;;13.62;83.00
2339;BME280;1180;51.438;6.978;2023-03-22T06:27:48;99534.06;;;13.64;82.98
2339;BME280;1180;51.438;6.978;2023-03-22T06:30:13;99546.63;;;13.78;82.51
2339;BME280;1180;51.438;6.978;2023-03-22T06:32:39;99533.41;;;13.71;82.39
2339;BME280;1180;51.438;6.978;2023-03-22T06:35:05;99538.56;;;13.71;82.37
2339;BME280;1180;51.438;6.978;2023-03-22T06:37:30;99530.31;;;13.78;82.33
2339;BME280;1180;51.438;6.978;2023-03-22T06:39:55;99525.31;;;13.86;81.61
2339;BME280;1180;51.438;6.978;2023-03-22T06:42:21;99511.22;;;13.90;82.16
2339;BME280;1180;51.438;6.978;2023-03-22T06:44:47;99513.03;;;13.99;80.74
2339;BME280;1180;51.438;6.978;2023-03-22T06:47:12;99515.31;;;13.93;81.18
2339;BME280;1180;51.438;6.978;2023-03-22T06:49:39;99520.16;;;13.86;81.90
2339;BME280;1180;51.438;6.978;2023-03-22T06:52:04;99518.56;;;13.95;81.55
2339;BME280;1180;51.438;6.978;2023-03-22T06:54:30;99528.31;;;13.91;81.29
2339;BME280;1180;51.438;6.978;2023-03-22T06:56:55;99517.19;;;13.91;81.70
2339;BME280;1180;51.438;6.978;2023-03-22T06:59:20;99519.41;;;14.05;81.00
2339;BME280;1180;51.438;6.978;2023-03-22T07:01:46;99516.97;;;14.04;80.68
2339;BME280;1180;51.438;6.978;2023-03-22T07:04:12;99520.75;;;13.99;80.73
2339;BME280;1180;51.438;6.978;2023-03-22T07:06:38;99500.78;;;13.92;80.76
2339;BME280;1180;51.438;6.978;2023-03-22T07:09:03;99498.59;;;13.87;81.28
2339;BME280;1180;51.438;6.978;2023-03-22T07:11:28;99505.09;;;13.81;80.94
2339;BME280;1180;51.438;6.978;2023-03-22T07:13:54;99503.06;;;13.85;80.99
2339;BME280;1180;51.438;6.978;2023-03-22T07:16:20;99500.63;;;13.83;81.35
2339;BME280;1180;51.438;6.978;2023-03-22T07:18:46;99504.31;;;13.91;81.15
2339;BME280;1180;51.438;6.978;2023-03-22T07:21:13;99506.25;;;14.08;79.81
2339;BME280;1180;51.438;6.978;2023-03-22T07:23:39;99498.63;;;13.97;79.93
2339;BME280;1180;51.438;6.978;2023-03-22T07:26:05;99499.59;;;14.06;80.16
2339;BME280;1180;51.438;6.978;2023-03-22T07:28:30;99504.38;;;14.20;79.70
2339;BME280;1180;51.438;6.978;2023-03-22T07:31:05;99496.34;;;14.23;78.67
2339;BME280;1180;51.438;6.978;2023-03-22T07:33:31;99499.78;;;14.34;78.90
2339;BME280;1180;51.438;6.978;2023-03-22T07:35:58;99504.81;;;14.35;78.28
2339;BME280;1180;51.438;6.978;2023-03-22T07:38:23;99499.22;;;14.30;79.66
2339;BME280;1180;51.438;6.978;2023-03-22T07:40:52;99504.94;;;14.53;78.33
2339;BME280;1180;51.438;6.978;2023-03-22T07:43:21;99506.31;;;14.67;78.04
2339;BME280;1180;51.438;6.978;2023-03-22T07:45:48;99501.34;;;14.76;77.45
2339;BME280;1180;51.438;6.978;2023-03-22T07:48:13;99500.91;;;14.70;77.66
2339;BME280;1180;51.438;6.978;2023-03-22T07:50:39;99494.66;;;14.73;77.46
2339;BME280;1180;51.438;6.978;2023-03-22T07:53:04;99496.28;;;14.74;76.65
2339;BME280;1180;51.438;6.978;2023-03-22T07:55:29;99495.19;;;14.67;76.67
2339;BME280;1180;51.438;6.978;2023-03-22T07:57:55;99497.38;;;14.81;75.73
2339;BME280;1180;51.438;6.978;2023-03-22T08:00:20;99497.53;;;14.80;75.42
2339;BME280;1180;51.438;6.978;2023-03-22T08:02:46;99504.56;;;14.68;74.49
2339;BME280;1180;51.438;6.978;2023-03-22T08:05:11;99502.53;;;14.62;73.88
2339;BME280;1180;51.438;6.978;2023-03-22T08:07:37;99501.16;;;14.48;74.94
2339;BME280;1180;51.438;6.978;2023-03-22T08:10:03;99498.59;;;14.48;75.23
2339;BME280;1180;51.438;6.978;2023-03-22T08:12:28;99504.28;;;14.61;75.07
2339;BME280;1180;51.438;6.978;2023-03-22T08:14:55;99505.38;;;14.58;75.07
2339;BME280;1180;51.438;6.978;2023-03-22T08:17:20;99498.56;;;14.67;75.31
2339;BME280;1180;51.438;6.978;2023-03-22T08:19:46;99497.75;;;14.57;73.93
2339;BME280;1180;51.438;6.978;2023-03-22T08:22:11;99506.31;;;14.57;73.61
2339;BME280;1180;51.438;6.978;2023-03-22T08:24:37;99511.78;;;14.74;73.95
2339;BME280;1180;51.438;6.978;2023-03-22T08:27:03;99508.13;;;14.77;73.42
2339;BME280;1180;51.438;6.978;2023-03-22T08:29:29;99518.88;;;14.82;72.13
2339;BME280;1180;51.438;6.978;2023-03-22T08:31:54;99517.75;;;14.84;72.51
2339;BME280;1180;51.438;6.978;2023-03-22T08:34:20;99516.53;;;14.69;72.75
2339;BME280;1180;51.438;6.978;2023-03-22T08:36:46;99510.00;;;14.75;72.09
2339;BME280;1180;51.438;6.978;2023-03-22T08:39:12;99512.19;;;14.79;72.70
2339;BME280;1180;51.438;6.978;2023-03-22T08:41:38;99519.00;;;14.80;72.44
2339;BME280;1180;51.438;6.978;2023-03-22T08:44:03;99512.19;;;14.99;71.24
2339;BME280;1180;51.438;6.978;2023-03-22T08:46:29;99515.31;;;14.73;72.09
2339;BME280;1180;51.438;6.978;2023-03-22T08:48:54;99524.03;;;14.92;72.33
2339;BME280;1180;51.438;6.978;2023-03-22T08:51:23;99521.44;;;14.92;71.47
2339;BME280;1180;51.438;6.978;2023-03-22T08:53:48;99516.41;;;15.10;70.79
2339;BME280;1180;51.438;6.978;2023-03-22T08:56:14;99523.03;;;15.12;70.56
2339;BME280;1180;51.438;6.978;2023-03-22T08:58:44;99508.09;;;15.06;71.05
2339;BME280;1180;51.438;6.978;2023-03-22T09:01:15;99502.66;;;14.99;71.11
2339;BME280;1180;51.438;6.978;2023-03-22T09:03:42;99510.66;;;15.16;70.35
2339;BME280;1180;51.438;6.978;2023-03-22T09:06:09;99514.22;;;15.05;70.48
2339;BME280;1180;51.438;6.978;2023-03-22T09:08:34;99509.59;;;15.09;70.75
2339;BME280;1180;51.438;6.978;2023-03-22T09:11:00;99514.34;;;15.13;70.87
2339;BME280;1180;51.438;6.978;2023-03-22T09:13:25;99514.06;;;15.16;70.41
2339;BME280;1180;51.438;6.978;2023-03-22T09:15:51;99510.31;;;15.39;69.57
2339;BME280;1180;51.438;6.978;2023-03-22T09:18:17;99503.78;;;15.44;69.34
2339;BME280;1180;51.438;6.978;2023-03-22T09:20:44;99509.25;;;15.31;68.80
2339;BME280;1180;51.438;6.978;2023-03-22T09:23:10;99506.25;;;15.36;68.17
2339;BME280;1180;51.438;6.978;2023-03-22T09:25:35;99504.38;;;15.28;68.28
2339;BME280;1180;51.438;6.978;2023-03-22T09:28:02;99503.69;;;15.36;68.38
2339;BME280;1180;51.438;6.978;2023-03-22T09:30:29;99507.31;;;15.43;68.45
2339;BME280;1180;51.438;6.978;2023-03-22T09:32:54;99495.84;;;15.56;68.58
2339;BME280;1180;51.438;6.978;2023-03-22T09:35:20;99499.38;;;15.55;66.93
2339;BME280;1180;51.438;6.978;2023-03-22T09:37:45;99495.91;;;15.74;68.18
2339;BME280;1180;51.438;6.978;2023-03-22T09:40:12;99504.41;;;15.66;66.12
2339;BME280;1180;51.438;6.978;2023-03-22T09:42:41;99498.31;;;15.48;65.36
2339;BME280;1180;51.438;6.978;2023-03-22T09:45:13;99500.13;;;15.37;65.83
2339;BME280;1180;51.438;6.978;2023-03-22T09:47:44;99493.41;;;15.54;65.45
2339;BME280;1180;51.438;6.978;2023-03-22T09:50:23;99504.81;;;15.62;64.89
2339;BME280;1180;51.438;6.978;2023-03-22T09:52:49;99498.59;;;15.54;65.20
2339;BME280;1180;51.438;6.978;2023-03-22T09:55:21;99499.88;;;15.68;64.63
2339;BME280;1180;51.438;6.978;2023-03-22T10:00:39;99495.25;;;15.34;64.23
2339;BME280;1180;51.438;6.978;2023-03-22T10:03:26;99502.41;;;15.50;64.17
2339;BME280;1180;51.438;6.978;2023-03-22T10:06:08;99499.97;;;15.39;64.18
2339;BME280;1180;51.438;6.978;2023-03-22T10:09:05;99505.09;;;15.58;64.15
2339;BME280;1180;51.438;6.978;2023-03-22T10:11:48;99490.66;;;15.56;64.44
2339;BME280;1180;51.438;6.978;2023-03-22T10:14:37;99488.13;;;15.74;64.10
2339;BME280;1180;51.438;6.978;2023-03-22T10:17:08;99469.84;;;15.85;63.89
2339;BME280;1180;51.438;6.978;2023-03-22T10:22:15;99481.69;;;15.88;62.98
2339;BME280;1180;51.438;6.978;2023-03-22T10:24:42;99474.19;;;15.85;62.48
2339;BME280;1180;51.438;6.978;2023-03-22T10:27:21;99489.72;;;15.85;62.84
2339;BME280;1180;51.438;6.978;2023-03-22T10:29:59;99475.97;;;15.94;63.33
2339;BME280;1180;51.438;6.978;2023-03-22T10:32:32;99480.94;;;16.06;62.57
2339;BME280;1180;51.438;6.978;2023-03-22T10:35:01;99475.53;;;16.17;62.24
2339;BME280;1180;51.438;6.978;2023-03-22T10:37:32;99474.28;;;16.21;61.35
2339;BME280;1180;51.438;6.978;2023-03-22T10:40:02;99469.63;;;16.25;61.48
2339;BME280;1180;51.438;6.978;2023-03-22T10:42:31;99475.06;;;16.31;61.82
2339;BME280;1180;51.438;6.978;2023-03-22T10:45:07;99478.97;;;16.17;61.13
2339;BME280;1180;51.438;6.978;2023-03-22T10:47:59;99483.22;;;16.09;61.90
2339;BME280;1180;51.438;6.978;2023-03-22T10:50:35;99484.13;;;15.99;61.52
2339;BME280;1180;51.438;6.978;2023-03-22T10:55:41;99485.50;;;15.94;61.84
2339;BME280;1180;51.438;6.978;2023-03-22T10:58:21;99494.47;;;15.99;62.58
2339;BME280;1180;51.438;6.978;2023-03-22T11:00:55;99483.84;;;16.21;62.19
2339;BME280;1180;51.438;6.978;2023-03-22T11:03:30;99479.88;;;16.26;61.64
2339;BME280;1180;51.438;6.978;2023-03-22T11:08:26;99489.16;;;16.37;61.71
2339;BME280;1180;51.438;6.978;2023-03-22T11:10:51;99486.22;;;16.32;61.32
2339;BME280;1180;51.438;6.978;2023-03-22T11:13:19;99479.63;;;16.38;60.97
2339;BME280;1180;51.438;6.978;2023-03-22T11:15:54;99486.06;;;16.34;60.77
2339;BME280;1180;51.438;6.978;2023-03-22T11:18:23;99484.16;;;16.36;61.71
2339;BME280;1180;51.438;6.978;2023-03-22T11:21:10;99476.69;;;16.33;60.77
2339;BME280;1180;51.438;6.978;2023-03-22T11:23:40;99476.88;;;16.39;60.61
2339;BME280;1180;51.438;6.978;2023-03-22T11:26:12;99484.28;;;16.34;60.22
2339;BME280;1180;51.438;6.978;2023-03-22T11:28:48;99478.66;;;16.21;60.98
2339;BME280;1180;51.438;6.978;2023-03-22T11:31:16;99488.78;;;16.14;61.47
2339;BME280;1180;51.438;6.978;2023-03-22T11:33:59;99474.94;;;16.23;60.77
2339;BME280;1180;51.438;6.978;2023-03-22T11:36:25;99477.75;;;16.12;61.13
2339;BME280;1180;51.438;6.978;2023-03-22T11:38:59;99476.78;;;16.13;61.85
2339;BME280;1180;51.438;6.978;2023-03-22T11:41:30;99476.84;;;16.03;61.41
2339;BME280;1180;51.438;6.978;2023-03-22T11:44:03;99478.09;;;15.99;61.62
2339;BME280;1180;51.438;6.978;2023-03-22T11:46:30;99483.53;;;16.06;61.29
2339;BME280;1180;51.438;6.978;2023-03-22T11:49:02;99475.69;;;15.97;61.47
2339;BME280;1180;51.438;6.978;2023-03-22T11:51:34;99475.84;;;16.14;62.02
2339;BME280;1180;51.438;6.978;2023-03-22T11:54:26;99474.28;;;16.21;61.46
2339;BME280;1180;51.438;6.978;2023-03-22T11:56:54;99477.78;;;16.30;61.26
2339;BME280;1180;51.438;6.978;2023-03-22T11:59:24;99460.38;;;16.22;60.72
2339;BME280;1180;51.438;6.978;2023-03-22T12:02:19;99456.84;;;16.23;61.29
2339;BME280;1180;51.438;6.978;2023-03-22T12:04:49;99460.69;;;16.19;60.96
2339;BME280;1180;51.438;6.978;2023-03-22T12:07:17;99448.69;;;16.18;61.57
2339;BME280;1180;51.438;6.978;2023-03-22T12:10:24;99455.13;;;16.14;62.06
2339;BME280;1180;51.438;6.978;2023-03-22T12:13:14;99455.44;;;16.29;61.14
2339;BME280;1180;51.438;6.978;2023-03-22T12:15:45;99456.38;;;16.10;59.80
2339;BME280;1180;51.438;6.978;2023-03-22T12:18:19;99449.44;;;16.10;59.76
2339;BME280;1180;51.438;6.978;2023-03-22T12:20:56;99446.19;;;16.08;59.10
2339;BME280;1180;51.438;6.978;2023-03-22T12:23:28;99454.09;;;16.07;59.92
2339;BME280;1180;51.438;6.978;2023-03-22T12:26:04;99448.91;;;16.07;59.34
2339;BME280;1180;51.438;6.978;2023-03-22T12:31:14;99442.78;;;16.08;59.36
2339;BME280;1180;51.438;6.978;2023-03-22T12:33:47;99443.38;;;16.01;58.50
2339;BME280;1180;51.438;6.978;2023-03-22T12:36:19;99446.84;;;15.92;57.66
2339;BME280;1180;51.438;6.978;2023-03-22T12:38:49;99449.44;;;15.92;58.28
2339;BME280;1180;51.438;6.978;2023-03-22T12:41:32;99455.00;;;16.15;57.74
2339;BME280;1180;51.438;6.978;2023-03-22T12:44:07;99462.00;;;16.05;58.44
2339;BME280;1180;51.438;6.978;2023-03-22T12:46:50;99468.13;;;16.04;58.79
2339;BME280;1180;51.438;6.978;2023-03-22T12:52:09;99469.94;;;15.66;60.70
2339;BME280;1180;51.438;6.978;2023-03-22T12:54:36;99468.66;;;15.80;61.75
2339;BME280;1180;51.438;6.978;2023-03-22T12:57:02;99472.34;;;15.77;61.45
2339;BME280;1180;51.438;6.978;2023-03-22T12:59:29;99481.69;;;15.60;61.77
2339;BME280;1180;51.438;6.978;2023-03-22T13:01:59;99466.91;;;15.42;63.07
2339;BME280;1180;51.438;6.978;2023-03-22T13:04:48;99468.97;;;15.67;62.73
2339;BME280;1180;51.438;6.978;2023-03-22T13:09:44;99458.88;;;15.73;62.32
2339;BME280;1180;51.438;6.978;2023-03-22T13:30:47;99453.06;;;15.99;60.74
2339;BME280;1180;51.438;6.978;2023-03-22T13:33:19;99445.06;;;15.93;61.38
2339;BME280;1180;51.438;6.978;2023-03-22T13:36:50;99453.81;;;16.10;60.94
2339;BME280;1180;51.438;6.978;2023-03-22T13:38:55;99442.91;;;15.88;61.23
2339;BME280;1180;51.438;6.978;2023-03-22T13:41:30;99442.78;;;15.80;61.91
2339;BME280;1180;51.438;6.978;2023-03-22T13:44:20;99440.25;;;15.98;61.24
2339;BME280;1180;51.438;6.978;2023-03-22T13:46:52;99441.75;;;16.00;61.10
2339;BME280;1180;51.438;6.978;2023-03-22T13:49:42;99440.63;;;16.03;61.21
2339;BME280;1180;51.438;6.978;2023-03-22T13:52:26;99434.56;;;15.94;61.66
2339;BME280;1180;51.438;6.978;2023-03-22T13:54:54;99442.66;;;16.09;61.57
2339;BME280;1180;51.438;6.978;2023-03-22T14:02:54;99422.25;;;16.24;61.00
2339;BME280;1180;51.438;6.978;2023-03-22T14:05:21;99418.88;;;16.32;60.82
2339;BME280;1180;51.438;6.978;2023-03-22T14:07:55;99416.47;;;16.30;61.50
2339;BME280;1180;51.438;6.978;2023-03-22T14:10:43;99405.88;;;16.24;60.69
2339;BME280;1180;51.438;6.978;2023-03-22T14:13:18;99400.84;;;16.22;61.28
2339;BME280;1180;51.438;6.978;2023-03-22T14:15:49;99401.81;;;16.21;61.84
2339;BME280;1180;51.438;6.978;2023-03-22T14:18:23;99400.53;;;16.07;62.49
2339;BME280;1180;51.438;6.978;2023-03-22T14:20:54;99397.09;;;16.16;62.29
2339;BME280;1180;51.438;6.978;2023-03-22T14:23:28;99400.47;;;16.17;62.14
2339;BME280;1180;51.438;6.978;2023-03-22T14:26:01;99397.22;;;16.15;62.73
2339;BME280;1180;51.438;6.978;2023-03-22T14:28:35;99396.19;;;16.08;63.21
2339;BME280;1180;51.438;6.978;2023-03-22T14:31:02;99398.91;;;16.06;63.52
2339;BME280;1180;51.438;6.978;2023-03-22T14:33:28;99396.78;;;16.20;63.48
2339;BME280;1180;51.438;6.978;2023-03-22T14:35:57;99392.41;;;16.20;63.32
2339;BME280;1180;51.438;6.978;2023-03-22T14:38:35;99398.56;;;16.19;63.68
2339;BME280;1180;51.438;6.978;2023-03-22T14:43:39;99401.91;;;16.11;63.77
2339;BME280;1180;51.438;6.978;2023-03-22T14:46:15;99401.00;;;16.02;64.25
2339;BME280;1180;51.438;6.978;2023-03-22T14:48:53;99406.03;;;16.04;64.31
2339;BME280;1180;51.438;6.978;2023-03-22T14:51:22;99402.56;;;16.13;64.29